KTPA Airport Information

Runway Information
Runway 10 Length 6999 ft width 150 ft
Elevation 14 ft Threshold 0 ft Heading 92
Runway 28 Length 6999 ft Width 150 ft
Elevation 26 ft Threshold 0 ft Heading 272
Runway 19L Length 8300 ft width 150 ft
Elevation 26 ft Threshold 0 ft Heading 182
Runway 01R Length 8300 ft Width 150 ft
Elevation 18 ft Threshold 0 ft Heading 2
Runway 19R Length 11002 ft width 150 ft
Elevation 21 ft Threshold 0 ft Heading 182
Runway 01L Length 11002 ft Width 150 ft
Elevation 11 ft Threshold 0 ft Heading 2
Airport Frequencies
Type A/D Name APP/DEP Frequency 118.15 MHZ
Type ATIS Name ATIS Frequency 126.45 MHZ
Type CLD Name CLNC DEL Frequency 133.6 MHZ
Type GND Name GND Frequency 121.7 MHZ
Type TWR Name TWR Frequency 119.5 MHZ
Type UNIC Name UNICOM Frequency 122.95 MHZ
Airport Navaids
Type NDB Name Cosme Frequency 368 KHZ
Airport Weather Information & NOTAM
ADDS - METARS form results

(0151 UTC 19 January 2018)
 
METAR text: KTPA 190053Z 01007KT 10SM FEW250 07/M01 A3035 RMK AO2 SLP276 T00671011
Conditions at: KTPA (TAMPA , FL, US) observed 0053 UTC 19 January 2018
Temperature: 6.7°C (44°F)
Dewpoint: -1.1°C (30°F) [RH = 57%]
Pressure (altimeter): 30.35 inches Hg (1027.9 mb)
[Sea-level pressure: 1027.6 mb]
Winds: from the N (10 degrees) at 8 MPH (7 knots; 3.6 m/s)
Visibility: 10 or more miles (16+ km)
Ceiling: at least 12,000 feet AGL
Clouds: few clouds at 25000 feet AGL
Weather: no significant weather observed at this time